Weather History for KRQB - March, 2012

Change the Weather History Date:

Monday, March 26, 2012

  Actual Average Record
Temperature  
Mean Temperature 36 °F -  
Max Temperature 46 °F 45 °F 75 °F (1998)
Min Temperature 26 °F 24 °F -3 °F (2014)
Degree Days  
Heating Degree Days 29    
Moisture  
Dew Point 21 °F    
Average Humidity 62    
Maximum Humidity 83    
Minimum Humidity 35    
Precipitation  
Precipitation 0.00 in - - ()
Sea Level Pressure  
Sea Level Pressure 30.33 in    
Wind  
Wind Speed 8 mph (NE)    
Max Wind Speed 14 mph    
Max Gust Speed 18 mph    
Visibility 10 miles    
Events      
Averages and records for this station are not official NWS values.
T = Trace of Precipitation, MM = Missing Value Source: NWS Daily Summary

Daily Weather History Graph

Daily Weather History Graph

Search for Another Location

Airport or City:

Trip Planner

Search our weather history database for the weather conditions in past years. The results will help you decide how hot, cold, wet, or windy it might be!

Date:

Astronomy

Mar. 26, 2012 Rise Set
Actual Time 7:33 AM EDT 8:02 PM EDT
Civil Twilight 7:04 AM EDT 8:31 PM EDT
Nautical Twilight 6:30 AM EDT 9:05 PM EDT
Astronomical Twilight 5:55 AM EDT 9:40 PM EDT
Moon 9:13 AM EDT (3/26) No Moon Set
Length of Visible Light 13h 26m
Length of Day
12h 28m
Waxing Crescent, 14% of the Moon is Illuminated
Mar 26
Waxing Crescent
Mar 30
First Quarter
Apr 6
Full
Apr 13
Last Quarter
Apr 21
New

Hourly Weather History & Observations

Time (EDT) Temp. Windchill Dew Point Humidity Pressure Visibility Wind Dir Wind Speed Gust Speed Precip Events Conditions
12:14 AM 33.3 °F 25.1 °F 28.2 °F 82% 30.18 in 10.0 mi North 10.4 mph - N/A   Clear
12:34 AM 32.9 °F 25.3 °F 27.9 °F 82% 30.18 in 10.0 mi North 9.2 mph - N/A   Clear
12:54 AM 32.2 °F 24.4 °F 27.5 °F 83% 30.19 in 10.0 mi NNE 9.2 mph - N/A   Clear
1:14 AM 32.0 °F 22.1 °F 26.2 °F 79% 30.19 in 10.0 mi North 13.8 mph 17.3 mph N/A   Clear
1:34 AM 31.6 °F 22.6 °F 25.3 °F 78% 30.20 in 10.0 mi North 11.5 mph 18.4 mph N/A   Clear
1:54 AM 31.5 °F 22.9 °F 25.2 °F 78% 30.21 in 10.0 mi North 10.4 mph - N/A   Clear
2:14 AM 30.9 °F 21.7 °F 25.0 °F 79% 30.21 in 10.0 mi North 11.5 mph - N/A   Clear
2:34 AM 30.4 °F 22.9 °F 25.3 °F 82% 30.22 in 10.0 mi North 8.1 mph - N/A   Clear
2:54 AM 30.2 °F 23.4 °F 25.3 °F 82% 30.23 in 10.0 mi North 6.9 mph - N/A   Clear
3:14 AM 30.0 °F 24.1 °F 25.3 °F 83% 30.24 in 10.0 mi North 5.8 mph - N/A   Clear
3:34 AM 30.0 °F 22.4 °F 24.4 °F 80% 30.25 in 10.0 mi North 8.1 mph - N/A   Clear
3:54 AM 30.0 °F 22.4 °F 22.8 °F 75% 30.25 in 10.0 mi NNE 8.1 mph 17.3 mph N/A   Clear
4:14 AM 29.7 °F 21.3 °F 23.0 °F 76% 30.27 in 10.0 mi NNE 9.2 mph - N/A   Clear
4:34 AM 29.1 °F 23.0 °F 23.4 °F 79% 30.28 in 10.0 mi North 5.8 mph - N/A   Clear
4:54 AM 28.8 °F 21.7 °F 23.5 °F 81% 30.28 in 10.0 mi North 6.9 mph - N/A   Clear
5:14 AM 28.9 °F 21.9 °F 22.8 °F 78% 30.29 in 10.0 mi North 6.9 mph - N/A   Clear
5:34 AM 28.2 °F 23.1 °F 23.0 °F 81% 30.30 in 10.0 mi North 4.6 mph - N/A   Clear
5:54 AM 28.4 °F 22.2 °F 22.5 °F 78% 30.31 in 10.0 mi North 5.8 mph - N/A   Clear
6:14 AM 28.2 °F 21.0 °F 21.9 °F 77% 30.31 in 10.0 mi NNE 6.9 mph - N/A   Clear
6:34 AM 28.0 °F 20.8 °F 21.4 °F 76% 30.31 in 10.0 mi North 6.9 mph - N/A   Clear
6:54 AM 27.7 °F 18.8 °F 21.0 °F 76% 30.32 in 10.0 mi NNE 9.2 mph - N/A   Clear
7:14 AM 27.5 °F 20.2 °F 20.1 °F 74% 30.33 in 10.0 mi NNE 6.9 mph - N/A   Clear
7:34 AM 27.3 °F 19.1 °F 19.8 °F 73% 30.34 in 10.0 mi NNE 8.1 mph - N/A   Clear
7:54 AM 26.6 °F 21.2 °F 20.1 °F 77% 30.35 in 10.0 mi NNE 4.6 mph - N/A   Clear
8:13 AM 27.5 °F 19.3 °F 19.9 °F 73% 30.36 in 10.0 mi NNE 8.1 mph - N/A   Clear
8:34 AM 28.2 °F 20.2 °F 19.2 °F 69% 30.37 in 10.0 mi NNE 8.1 mph - N/A   Clear
8:54 AM 28.6 °F 22.4 °F 18.3 °F 65% 30.38 in 10.0 mi NE 5.8 mph - N/A   Clear
9:14 AM 29.5 °F 20.4 °F 18.7 °F 64% 30.38 in 10.0 mi NE 10.4 mph - N/A   Clear
9:34 AM 30.2 °F 21.9 °F 18.5 °F 62% 30.39 in 10.0 mi NE 9.2 mph - N/A   Clear
9:54 AM 30.6 °F 24.7 °F 18.3 °F 60% 30.39 in 10.0 mi NE 5.8 mph - N/A   Clear
10:14 AM 32.0 °F 24.8 °F 18.9 °F 58% 30.39 in 10.0 mi NE 8.1 mph - N/A   Clear
10:34 AM 32.4 °F 24.6 °F 18.9 °F 58% 30.39 in 10.0 mi ENE 9.2 mph - N/A   Clear
10:55 AM 33.1 °F 26.9 °F 19.0 °F 56% 30.39 in 10.0 mi ENE 6.9 mph - N/A   Clear
11:14 AM 34.3 °F 30.2 °F 19.8 °F 55% 30.39 in 10.0 mi ENE 4.6 mph - N/A   Clear
11:34 AM 34.7 °F 30.6 °F 18.7 °F 52% 30.40 in 10.0 mi ENE 4.6 mph - N/A   Clear
11:54 AM 36.5 °F 29.7 °F 19.0 °F 49% 30.40 in 10.0 mi ENE 9.2 mph - N/A   Clear
12:14 PM 37.4 °F 32.8 °F 18.5 °F 46% 30.40 in 10.0 mi NE 5.8 mph - N/A   Clear
12:34 PM 38.3 °F 31.4 °F 18.9 °F 46% 30.41 in 10.0 mi NE 10.4 mph - N/A   Clear
12:54 PM 39.2 °F 35.0 °F 18.7 °F 44% 30.41 in 10.0 mi East 5.8 mph - N/A   Clear
1:14 PM 40.1 °F 34.7 °F 18.7 °F 42% 30.40 in 10.0 mi NE 8.1 mph - N/A   Clear
1:34 PM 41.0 °F 35.8 °F 19.8 °F 43% 30.40 in 10.0 mi ENE 8.1 mph - N/A   Clear
1:54 PM 41.4 °F 35.7 °F 18.9 °F 41% 30.39 in 10.0 mi ENE 9.2 mph - N/A   Clear
2:14 PM 41.7 °F 37.3 °F 18.1 °F 39% 30.39 in 10.0 mi NE 6.9 mph - N/A   Clear
2:34 PM 43.0 °F 41.3 °F 19.2 °F 39% 30.38 in 10.0 mi ENE 3.5 mph - N/A   Clear
2:54 PM 42.4 °F 40.7 °F 17.4 °F 37% 30.37 in 10.0 mi ENE 3.5 mph - N/A   Clear
3:14 PM 43.7 °F 38.6 °F 19.9 °F 39% 30.36 in 10.0 mi NE 9.2 mph - N/A   Clear
3:34 PM 44.8 °F - 20.1 °F 37% 30.37 in 10.0 mi Calm Calm - N/A   Clear
3:54 PM 45.3 °F - 20.1 °F 37% 30.36 in 10.0 mi Calm Calm - N/A   Clear
4:14 PM 45.0 °F - 18.9 °F 35% 30.36 in 10.0 mi Calm Calm - N/A   Clear
4:34 PM 44.8 °F 42.4 °F 19.6 °F 37% 30.35 in 10.0 mi ESE 4.6 mph - N/A   Clear
4:54 PM 46.0 °F 43.1 °F 21.6 °F 38% 30.35 in 10.0 mi SE 5.8 mph - N/A   Clear
5:14 PM 45.3 °F 44.0 °F 20.8 °F 38% 30.35 in 10.0 mi SE 3.5 mph - N/A   Clear
5:34 PM 45.3 °F 40.1 °F 20.7 °F 38% 30.35 in 10.0 mi South 10.4 mph - N/A   Clear
5:54 PM 45.0 °F 42.6 °F 19.0 °F 36% 30.35 in 10.0 mi SE 4.6 mph - N/A   Clear
6:14 PM 45.0 °F 41.8 °F 20.1 °F 37% 30.34 in 10.0 mi SE 5.8 mph - N/A   Clear
6:34 PM 44.6 °F 40.7 °F 19.9 °F 37% 30.34 in 10.0 mi ESE 6.9 mph - N/A   Clear
6:54 PM 44.4 °F 42.0 °F 21.4 °F 40% 30.33 in 10.0 mi ESE 4.6 mph - N/A   Clear
7:14 PM 43.7 °F - 19.9 °F 39% 30.33 in 10.0 mi North - - N/A   Clear
7:34 PM 42.8 °F 38.6 °F 20.8 °F 42% 30.33 in 10.0 mi SSE 6.9 mph - N/A   Clear
7:54 PM 42.1 °F 37.7 °F 19.0 °F 40% 30.33 in 10.0 mi SE 6.9 mph - N/A   Clear
8:13 PM 40.5 °F 37.3 °F 21.7 °F 47% 30.33 in 10.0 mi SSE 4.6 mph - N/A   Clear
8:34 PM 39.9 °F 36.7 °F 21.6 °F 48% 30.33 in 10.0 mi SSE 4.6 mph - N/A   Clear
8:54 PM 38.3 °F 35.9 °F 22.6 °F 53% 30.33 in 10.0 mi SE 3.5 mph - N/A   Clear
9:13 PM 36.7 °F 34.1 °F 23.0 °F 58% 30.34 in 10.0 mi ESE 3.5 mph - N/A   Clear
9:34 PM 36.3 °F 33.7 °F 23.2 °F 59% 30.34 in 10.0 mi SSE 3.5 mph - N/A   Clear
9:54 PM 36.5 °F 32.7 °F 21.7 °F 55% 30.35 in 10.0 mi SSE 4.6 mph - N/A   Clear
10:13 PM 35.6 °F 28.6 °F 23.9 °F 62% 30.36 in 10.0 mi SSE 9.2 mph - N/A   Clear
10:34 PM 35.6 °F 29.2 °F 23.0 °F 60% 30.37 in 10.0 mi South 8.1 mph - N/A   Clear
10:54 PM 34.7 °F 30.6 °F 23.5 °F 64% 30.36 in 10.0 mi SE 4.6 mph - N/A   Clear
11:13 PM 34.0 °F 29.8 °F 23.2 °F 65% 30.36 in 10.0 mi ESE 4.6 mph - N/A   Clear
11:34 PM 33.8 °F 27.7 °F 23.0 °F 65% 30.36 in 10.0 mi SE 6.9 mph - N/A   Clear
11:54 PM 33.1 °F 27.7 °F 22.8 °F 66% 30.36 in 10.0 mi ESE 5.8 mph - N/A   Clear